createdAt,value
2018-08-10T00:00:56.988Z,1.90
2018-08-10T00:03:37.116Z,1.72
2018-08-10T00:06:12.594Z,1.65
2018-08-10T00:08:47.913Z,1.50
2018-08-10T00:11:23.786Z,1.70
2018-08-10T00:13:59.130Z,1.40
2018-08-10T00:16:34.423Z,1.55
2018-08-10T00:19:09.913Z,1.50
2018-08-10T00:21:44.723Z,1.20
2018-08-10T00:24:19.615Z,1.40
2018-08-10T00:26:54.334Z,1.40
2018-08-10T00:29:29.480Z,1.30
2018-08-10T00:32:04.258Z,1.40
2018-08-10T00:34:39.590Z,1.43
2018-08-10T00:37:14.352Z,1.40
2018-08-10T00:39:50.089Z,1.50
2018-08-10T00:42:24.936Z,1.17
2018-08-10T00:44:59.911Z,1.40
2018-08-10T00:47:34.767Z,1.20
2018-08-10T00:50:11.114Z,1.20
2018-08-10T00:52:47.410Z,1.20
2018-08-10T00:55:22.036Z,1.40
2018-08-10T00:57:57.833Z,1.40
2018-08-10T01:00:32.701Z,1.20
2018-08-10T01:03:07.881Z,1.30
2018-08-10T01:05:42.881Z,1.60
2018-08-10T01:08:17.826Z,1.30
2018-08-10T01:10:52.730Z,1.60
2018-08-10T01:13:28.042Z,1.60
2018-08-10T01:16:03.026Z,1.50
2018-08-10T01:18:37.841Z,1.60
2018-08-10T01:21:12.484Z,1.40
2018-08-10T01:23:47.549Z,1.50
2018-08-10T01:26:23.450Z,1.50
2018-08-10T01:28:58.571Z,1.50
2018-08-10T01:31:33.635Z,1.40
2018-08-10T01:34:08.743Z,1.43
2018-08-10T01:36:43.799Z,1.30
2018-08-10T01:39:18.942Z,1.40
2018-08-10T01:41:53.893Z,1.70
2018-08-10T01:44:29.709Z,1.33
2018-08-10T01:47:05.030Z,1.40
2018-08-10T01:49:40.054Z,1.50
2018-08-10T01:52:14.651Z,1.80
2018-08-10T01:54:49.323Z,1.40
2018-08-10T01:57:24.268Z,1.20
2018-08-10T01:59:59.350Z,1.50
2018-08-10T02:02:34.342Z,1.50
2018-08-10T02:05:10.873Z,1.50
2018-08-10T02:07:45.604Z,1.50
2018-08-10T02:10:20.751Z,1.70
2018-08-10T02:12:56.926Z,1.53
2018-08-10T02:15:31.904Z,1.30
2018-08-10T02:18:06.745Z,1.27
2018-08-10T02:20:41.569Z,1.30
2018-08-10T02:23:17.177Z,1.50
2018-08-10T02:25:52.617Z,1.10
2018-08-10T02:28:27.461Z,1.40
2018-08-10T02:31:02.652Z,1.33
2018-08-10T02:33:37.671Z,1.10
2018-08-10T02:36:12.572Z,0.93
2018-08-10T02:38:50.396Z,1.23
2018-08-10T02:41:25.131Z,0.90
2018-08-10T02:44:00.107Z,1.17
2018-08-10T02:46:34.925Z,0.80
2018-08-10T02:49:10.501Z,0.63
2018-08-10T02:51:45.381Z,0.90
2018-08-10T02:54:20.421Z,0.90
2018-08-10T02:56:55.958Z,0.80
2018-08-10T02:59:30.866Z,0.70
2018-08-10T03:02:06.553Z,0.80
2018-08-10T03:04:41.379Z,1.00
2018-08-10T03:07:16.346Z,0.70
2018-08-10T03:09:51.290Z,1.00
2018-08-10T03:12:26.512Z,0.97
2018-08-10T03:15:01.374Z,0.70
2018-08-10T03:17:36.285Z,0.73
2018-08-10T03:20:11.517Z,0.80
2018-08-10T03:22:46.299Z,0.87
2018-08-10T03:25:21.233Z,0.80
2018-08-10T03:27:56.426Z,0.90
2018-08-10T03:30:31.697Z,0.80
2018-08-10T03:33:07.493Z,0.70
2018-08-10T03:35:42.306Z,0.70
2018-08-10T03:38:17.006Z,1.00
2018-08-10T03:40:51.959Z,0.50
2018-08-10T03:43:26.787Z,0.60
2018-08-10T03:46:01.673Z,0.60
2018-08-10T03:48:36.498Z,0.70
2018-08-10T03:51:11.491Z,0.80
2018-08-10T03:53:46.203Z,0.57
2018-08-10T03:56:21.639Z,0.60
2018-08-10T03:58:56.621Z,0.70
2018-08-10T04:01:31.533Z,0.57
2018-08-10T04:04:06.682Z,0.50
2018-08-10T04:06:41.609Z,0.50
2018-08-10T04:09:16.234Z,0.70
2018-08-10T04:11:51.435Z,0.53
2018-08-10T04:14:26.322Z,0.70
2018-08-10T04:17:01.170Z,0.40
2018-08-10T04:19:35.898Z,0.80
2018-08-10T04:22:10.893Z,0.60
2018-08-10T04:24:45.782Z,0.60
2018-08-10T04:27:21.433Z,0.60
2018-08-10T04:29:56.096Z,0.80
2018-08-10T04:32:31.687Z,0.70
2018-08-10T04:35:07.006Z,0.70
2018-08-10T04:37:42.207Z,0.60
2018-08-10T04:40:18.155Z,1.13
2018-08-10T04:42:54.239Z,0.63
2018-08-10T04:45:29.567Z,0.80
2018-08-10T04:48:04.731Z,0.83
2018-08-10T04:50:40.094Z,0.70
2018-08-10T04:53:15.240Z,0.67
2018-08-10T04:55:50.212Z,0.80
2018-08-10T04:58:25.329Z,0.90
2018-08-10T05:01:00.515Z,0.90
2018-08-10T05:03:35.124Z,1.00
2018-08-10T05:06:10.078Z,0.80
2018-08-10T05:08:44.872Z,1.03
2018-08-10T05:11:21.574Z,0.90
2018-08-10T05:13:56.449Z,1.20
2018-08-10T05:16:31.101Z,1.10
2018-08-10T05:19:05.874Z,1.07
2018-08-10T05:21:40.997Z,1.20
2018-08-10T05:24:15.930Z,1.10
2018-08-10T05:26:51.151Z,0.90
2018-08-10T05:29:26.204Z,1.00
2018-08-10T05:32:01.326Z,0.90
2018-08-10T05:34:36.435Z,0.80
2018-08-10T05:37:11.653Z,1.10
2018-08-10T05:39:46.916Z,0.90
2018-08-10T05:42:22.100Z,1.00
2018-08-10T05:44:56.868Z,0.90
2018-08-10T05:47:31.933Z,0.90
2018-08-10T05:50:06.939Z,0.80
2018-08-10T05:52:41.831Z,0.90
2018-08-10T05:55:17.145Z,0.90
2018-08-10T05:57:58.803Z,0.70
2018-08-10T06:00:34.037Z,0.80
2018-08-10T06:03:08.951Z,0.97
2018-08-10T06:05:44.038Z,0.70
2018-08-10T06:08:18.803Z,0.90
2018-08-10T06:10:53.717Z,0.90
2018-08-10T06:13:29.077Z,1.00
2018-08-10T06:16:04.425Z,0.80
2018-08-10T06:18:39.138Z,1.00
2018-08-10T06:21:14.675Z,0.97
2018-08-10T06:23:50.089Z,0.90
2018-08-10T06:26:25.678Z,0.90
2018-08-10T06:29:00.613Z,0.90
2018-08-10T06:31:35.472Z,1.00
2018-08-10T06:34:11.584Z,0.90
2018-08-10T06:36:46.553Z,1.47
2018-08-10T06:39:21.505Z,1.20
2018-08-10T06:41:56.126Z,1.27
2018-08-10T06:44:31.130Z,1.00
2018-08-10T06:47:06.395Z,1.20
2018-08-10T06:49:41.382Z,1.20
2018-08-10T06:52:16.122Z,1.10
2018-08-10T06:54:51.220Z,0.90
2018-08-10T06:57:26.204Z,1.10
2018-08-10T07:00:01.241Z,0.70
2018-08-10T07:02:36.256Z,0.80
2018-08-10T07:05:11.432Z,0.70
2018-08-10T07:07:46.811Z,1.10
2018-08-10T07:10:21.868Z,1.10
2018-08-10T07:12:56.874Z,0.80
2018-08-10T07:15:32.085Z,0.83
2018-08-10T07:18:07.045Z,0.90
2018-08-10T07:20:42.202Z,0.60
2018-08-10T07:23:16.829Z,0.70
2018-08-10T07:25:51.509Z,0.70
2018-08-10T07:28:26.341Z,0.60
2018-08-10T07:31:01.137Z,0.73
2018-08-10T07:33:36.008Z,0.87
2018-08-10T07:36:10.901Z,0.77
2018-08-10T07:38:46.367Z,0.85
2018-08-10T07:41:21.121Z,0.80
2018-08-10T07:43:55.916Z,0.80
2018-08-10T07:46:30.959Z,0.80
2018-08-10T07:49:06.590Z,0.70
2018-08-10T07:51:41.917Z,1.10
2018-08-10T07:54:17.394Z,0.75
2018-08-10T07:56:53.262Z,0.80
2018-08-10T07:59:28.861Z,0.60
2018-08-10T08:02:04.435Z,0.57
2018-08-10T08:04:39.705Z,0.42
2018-08-10T08:07:15.168Z,0.60
2018-08-10T08:09:50.634Z,0.70
2018-08-10T08:12:25.797Z,0.40
2018-08-10T08:15:01.305Z,0.62
2018-08-10T08:17:36.711Z,0.70
2018-08-10T08:20:11.858Z,1.70
2018-08-10T08:22:47.296Z,0.95
2018-08-10T08:25:23.233Z,0.50
2018-08-10T08:27:58.842Z,1.30
2018-08-10T08:30:34.219Z,2.00
2018-08-10T08:33:10.099Z,0.80
2018-08-10T08:35:46.362Z,1.30
2018-08-10T08:38:32.865Z,1.20
2018-08-10T08:41:09.625Z,1.37
2018-08-10T08:46:00.291Z,1.02
2018-08-10T08:48:37.926Z,1.05
2018-08-10T08:51:19.569Z,1.20
2018-08-10T08:54:09.842Z,0.60
2018-08-10T08:56:45.328Z,2.15
2018-08-10T08:59:21.259Z,0.80
2018-08-10T09:01:56.822Z,0.80
2018-08-10T09:04:45.105Z,0.57
2018-08-10T09:07:21.153Z,0.70
2018-08-10T09:09:57.278Z,0.85
2018-08-10T09:12:32.773Z,0.98
2018-08-10T09:15:10.344Z,0.42
2018-08-10T09:17:46.140Z,0.45
2018-08-10T09:20:22.471Z,0.60
2018-08-10T09:22:58.464Z,0.40
2018-08-10T09:25:34.041Z,0.60
2018-08-10T09:28:09.806Z,0.60
2018-08-10T09:30:45.533Z,1.27
2018-08-10T09:33:21.254Z,0.57
2018-08-10T09:35:56.758Z,0.37
2018-08-10T09:38:32.204Z,0.70
2018-08-10T09:41:07.743Z,0.60
2018-08-10T09:43:43.441Z,0.50
2018-08-10T09:46:18.991Z,0.40
2018-08-10T09:48:54.381Z,0.70
2018-08-10T09:51:30.118Z,0.40
2018-08-10T09:54:05.142Z,1.00
2018-08-10T09:56:40.838Z,1.20
2018-08-10T09:59:15.953Z,0.53
2018-08-10T10:01:56.631Z,0.60
2018-08-10T10:04:32.007Z,0.60
2018-08-10T10:07:06.985Z,0.50
2018-08-10T10:09:42.539Z,0.50
2018-08-10T10:12:17.705Z,0.50
2018-08-10T10:14:53.518Z,0.50
2018-08-10T10:17:28.652Z,0.57
2018-08-10T10:20:05.018Z,0.50
2018-08-10T10:22:40.554Z,0.40
2018-08-10T10:25:15.925Z,0.47
2018-08-10T10:27:51.292Z,0.40
2018-08-10T10:30:26.827Z,0.53
2018-08-10T10:33:02.082Z,0.37
2018-08-10T10:35:37.341Z,0.53
2018-08-10T10:38:12.846Z,0.47
2018-08-10T10:40:47.957Z,0.60
2018-08-10T10:43:23.122Z,0.60
2018-08-10T10:45:58.328Z,0.50
2018-08-10T10:48:33.957Z,0.60
2018-08-10T10:51:09.137Z,0.50
2018-08-10T10:53:44.689Z,0.60
2018-08-10T10:56:19.940Z,0.50
2018-08-10T10:58:55.041Z,0.60
2018-08-10T11:01:30.447Z,0.60
2018-08-10T11:04:05.693Z,0.60
2018-08-10T11:06:40.809Z,0.63
2018-08-10T11:09:16.100Z,0.50
2018-08-10T11:11:51.078Z,0.50
2018-08-10T11:14:26.421Z,0.50
2018-08-10T11:17:01.865Z,0.60
2018-08-10T11:19:36.870Z,0.40
2018-08-10T11:22:11.843Z,0.60
2018-08-10T11:24:47.429Z,0.60
2018-08-10T11:27:22.446Z,0.57
2018-08-10T11:29:57.509Z,0.30
2018-08-10T11:32:32.718Z,0.57
2018-08-10T11:35:08.369Z,0.50
2018-08-10T11:37:43.891Z,0.57
2018-08-10T11:40:19.222Z,0.72
2018-08-10T11:42:54.611Z,0.50
2018-08-10T11:45:29.929Z,0.50
2018-08-10T11:48:05.497Z,0.90
2018-08-10T11:50:40.925Z,0.60
2018-08-10T11:53:16.986Z,0.70
2018-08-10T11:55:52.561Z,0.68
2018-08-10T11:58:28.154Z,0.50
2018-08-10T12:01:03.576Z,0.30
2018-08-10T12:03:46.459Z,0.40
2018-08-10T12:06:21.781Z,0.40
2018-08-10T12:08:57.194Z,0.60
2018-08-10T12:11:32.870Z,0.40
2018-08-10T12:14:08.314Z,0.70
2018-08-10T12:16:43.821Z,0.50
2018-08-10T12:19:51.884Z,0.78
2018-08-10T12:22:26.967Z,0.57
2018-08-10T12:25:02.434Z,0.60
2018-08-10T12:27:37.447Z,0.50
2018-08-10T12:30:14.038Z,0.40
2018-08-10T12:32:49.071Z,0.60
2018-08-10T12:35:24.234Z,0.50
2018-08-10T12:37:59.676Z,0.67
2018-08-10T12:40:35.165Z,0.70
2018-08-10T12:43:10.450Z,0.50
2018-08-10T12:45:46.370Z,0.50
2018-08-10T12:48:21.810Z,0.50
2018-08-10T12:50:57.135Z,0.70
2018-08-10T12:53:32.846Z,0.90
2018-08-10T12:56:08.165Z,0.65
2018-08-10T12:58:43.796Z,0.60
2018-08-10T13:01:19.188Z,0.60
2018-08-10T13:03:55.745Z,0.57
2018-08-10T13:06:31.652Z,0.40
2018-08-10T13:09:10.760Z,0.70
2018-08-10T13:11:46.434Z,0.40
2018-08-10T13:14:22.753Z,0.60
2018-08-10T13:16:58.241Z,0.70
2018-08-10T13:19:33.730Z,0.50
2018-08-10T13:22:09.221Z,0.47
2018-08-10T13:24:44.978Z,0.70
2018-08-10T13:27:21.166Z,0.53
2018-08-10T13:29:57.392Z,0.50
2018-08-10T13:32:33.404Z,0.68
2018-08-10T13:35:08.960Z,0.50
2018-08-10T13:37:44.770Z,0.60
2018-08-10T13:40:20.389Z,0.50
2018-08-10T13:42:55.598Z,0.50
2018-08-10T13:45:31.222Z,0.60
2018-08-10T13:48:07.187Z,0.57
2018-08-10T13:50:43.129Z,0.57
2018-08-10T13:53:18.695Z,0.60
2018-08-10T13:55:54.163Z,0.60
2018-08-10T13:58:29.812Z,0.82
2018-08-10T14:01:05.153Z,0.72
2018-08-10T14:03:40.736Z,0.77
2018-08-10T14:06:15.869Z,0.50
2018-08-10T14:08:51.320Z,0.70
2018-08-10T14:11:26.261Z,0.50
2018-08-10T14:14:02.355Z,0.80
2018-08-10T14:16:37.449Z,0.70
2018-08-10T14:19:14.570Z,0.70
2018-08-10T14:21:50.202Z,0.80
2018-08-10T14:24:25.463Z,0.70
2018-08-10T14:27:00.546Z,0.80
2018-08-10T14:29:35.657Z,0.60
2018-08-10T14:32:10.893Z,0.70
2018-08-10T14:34:45.977Z,0.80
2018-08-10T14:37:21.462Z,0.80
2018-08-10T14:39:57.028Z,0.95
2018-08-10T14:42:32.213Z,0.60
2018-08-10T14:45:12.789Z,0.90
2018-08-10T14:47:48.549Z,0.70
2018-08-10T14:50:23.713Z,0.90
2018-08-10T14:52:59.425Z,0.90
2018-08-10T14:55:34.547Z,0.70
2018-08-10T14:58:09.821Z,0.93
2018-08-10T15:00:45.113Z,0.67
2018-08-10T15:03:21.479Z,0.90
2018-08-10T15:05:56.893Z,0.90
2018-08-10T15:08:32.556Z,0.90
2018-08-10T15:11:08.357Z,1.73
2018-08-10T15:13:49.943Z,1.50
2018-08-10T15:16:25.511Z,0.60
2018-08-10T15:19:00.731Z,0.70
2018-08-10T15:21:35.982Z,0.90
2018-08-10T15:24:11.905Z,1.20
2018-08-10T15:26:47.441Z,0.70
2018-08-10T15:29:22.861Z,0.90
2018-08-10T15:31:58.104Z,0.80
2018-08-10T15:34:33.166Z,0.80
2018-08-10T15:37:08.518Z,0.80
2018-08-10T15:39:43.563Z,0.70
2018-08-10T15:42:19.321Z,0.80
2018-08-10T15:44:54.936Z,0.87
2018-08-10T15:47:30.407Z,0.50
2018-08-10T15:50:06.450Z,0.80
2018-08-10T15:52:43.081Z,0.83
2018-08-10T15:55:18.822Z,0.73
2018-08-10T15:57:54.056Z,0.80
2018-08-10T16:00:29.303Z,0.90
2018-08-10T16:03:04.510Z,0.70
2018-08-10T16:05:39.676Z,1.00
2018-08-10T16:08:14.755Z,0.60
2018-08-10T16:10:49.854Z,0.80
2018-08-10T16:13:24.912Z,0.80
2018-08-10T16:16:00.272Z,1.00
2018-08-10T16:18:35.702Z,0.87
2018-08-10T16:21:11.359Z,0.80
2018-08-10T16:23:46.500Z,0.90
2018-08-10T16:26:21.806Z,0.90
2018-08-10T16:28:57.050Z,1.85
2018-08-10T16:31:32.397Z,0.90
2018-08-10T16:34:08.551Z,1.00
2018-08-10T16:36:43.560Z,0.90
2018-08-10T16:39:18.771Z,2.73
2018-08-10T16:41:53.908Z,2.23
2018-08-10T16:44:28.983Z,3.83
2018-08-10T16:47:04.857Z,0.80
2018-08-10T16:49:40.281Z,2.23
2018-08-10T16:52:15.906Z,3.33
2018-08-10T16:54:51.134Z,4.57
2018-08-10T16:57:25.998Z,3.20
2018-08-10T17:00:01.169Z,0.80
2018-08-10T17:02:36.470Z,0.90
2018-08-10T17:05:11.389Z,0.80
2018-08-10T17:07:46.818Z,0.70
2018-08-10T17:10:22.238Z,0.90
2018-08-10T17:12:57.838Z,1.00
2018-08-10T17:15:33.500Z,0.85
2018-08-10T17:18:09.323Z,0.70
2018-08-10T17:20:44.598Z,1.40
2018-08-10T17:23:20.617Z,4.20
2018-08-10T17:25:56.331Z,5.40
2018-08-10T17:28:31.961Z,7.00
2018-08-10T17:31:07.911Z,5.12
2018-08-10T17:33:43.314Z,0.90
2018-08-10T17:36:18.891Z,0.90
2018-08-10T17:38:54.491Z,1.00
2018-08-10T17:41:30.137Z,2.83
2018-08-10T17:44:05.856Z,2.20
2018-08-10T17:46:41.984Z,1.65
2018-08-10T17:49:17.530Z,0.85
2018-08-10T17:51:52.957Z,0.80
2018-08-10T17:54:28.485Z,0.93
2018-08-10T17:57:04.138Z,1.20
2018-08-10T17:59:39.436Z,0.90
2018-08-10T18:02:15.269Z,0.90
2018-08-10T18:04:50.813Z,0.80
2018-08-10T18:07:26.206Z,0.80
2018-08-10T18:10:01.801Z,0.90
2018-08-10T18:12:38.610Z,1.00
2018-08-10T18:15:15.222Z,0.90
2018-08-10T18:17:51.059Z,0.90
2018-08-10T18:20:26.395Z,1.05
2018-08-10T18:23:02.202Z,1.00
2018-08-10T18:25:37.484Z,2.40
2018-08-10T18:28:13.284Z,1.50
2018-08-10T18:30:49.199Z,1.10
2018-08-10T18:33:25.239Z,1.00
2018-08-10T18:36:05.872Z,1.20
2018-08-10T18:38:41.486Z,0.80
2018-08-10T18:41:17.137Z,1.30
2018-08-10T18:43:52.566Z,0.90
2018-08-10T18:46:28.112Z,1.00
2018-08-10T18:49:03.543Z,1.20
2018-08-10T18:51:39.818Z,1.02
2018-08-10T18:54:15.425Z,1.05
2018-08-10T18:56:51.377Z,1.00
2018-08-10T18:59:27.130Z,1.30
2018-08-10T19:02:02.634Z,1.10
2018-08-10T19:04:38.397Z,1.17
2018-08-10T19:07:13.795Z,1.75
2018-08-10T19:09:49.789Z,1.65
2018-08-10T19:12:25.541Z,3.75
2018-08-10T19:15:01.377Z,1.52
2018-08-10T19:17:37.133Z,2.42
2018-08-10T19:20:13.822Z,1.90
2018-08-10T19:22:49.463Z,2.52
2018-08-10T19:25:24.815Z,1.80
2018-08-10T19:28:00.712Z,2.12
2018-08-10T19:30:36.125Z,2.00
2018-08-10T19:33:11.865Z,2.10
2018-08-10T19:35:47.599Z,2.00
2018-08-10T19:38:24.173Z,2.57
2018-08-10T19:40:59.750Z,2.40
2018-08-10T19:43:34.730Z,2.60
2018-08-10T19:46:09.767Z,2.47
2018-08-10T19:48:44.697Z,2.10
2018-08-10T19:51:19.823Z,1.67
2018-08-10T19:53:55.030Z,1.53
2018-08-10T19:56:31.133Z,1.60
2018-08-10T19:59:07.182Z,1.20
2018-08-10T20:01:42.011Z,1.63
2018-08-10T20:04:17.153Z,1.80
2018-08-10T20:06:52.441Z,1.70
2018-08-10T20:09:27.354Z,1.77
2018-08-10T20:12:02.634Z,1.77
2018-08-10T20:14:38.425Z,1.70
2018-08-10T20:17:13.844Z,1.50
2018-08-10T20:19:49.115Z,1.37
2018-08-10T20:22:24.434Z,1.63
2018-08-10T20:24:59.346Z,1.40
2018-08-10T20:27:34.975Z,1.60
2018-08-10T20:30:13.489Z,1.60
2018-08-10T20:32:49.228Z,1.40
2018-08-10T20:35:23.959Z,1.60
2018-08-10T20:37:58.920Z,1.43
2018-08-10T20:40:34.061Z,1.53
2018-08-10T20:43:08.875Z,1.70
2018-08-10T20:45:43.847Z,1.50
2018-08-10T20:48:19.186Z,1.63
2018-08-10T20:50:54.920Z,1.80
2018-08-10T20:53:30.430Z,1.40
2018-08-10T20:56:05.733Z,1.43
2018-08-10T20:58:40.624Z,1.40
2018-08-10T21:01:16.730Z,1.50
2018-08-10T21:03:51.667Z,1.70
2018-08-10T21:06:26.993Z,1.43
2018-08-10T21:09:01.848Z,1.70
2018-08-10T21:11:37.108Z,1.53
2018-08-10T21:14:11.806Z,1.53
2018-08-10T21:16:46.822Z,1.90
2018-08-10T21:19:22.165Z,1.80
2018-08-10T21:21:57.297Z,1.80
2018-08-10T21:24:32.268Z,2.10
2018-08-10T21:27:07.122Z,2.07
2018-08-10T21:29:42.818Z,1.80
2018-08-10T21:32:17.593Z,1.90
2018-08-10T21:34:52.577Z,1.73
2018-08-10T21:37:27.518Z,1.70
2018-08-10T21:40:03.362Z,2.17
2018-08-10T21:42:38.498Z,1.83
2018-08-10T21:45:13.251Z,1.60
2018-08-10T21:47:48.323Z,1.80
2018-08-10T21:50:23.072Z,1.90
2018-08-10T21:52:58.987Z,2.00
2018-08-10T21:55:34.047Z,2.03
2018-08-10T21:58:09.328Z,1.80
2018-08-10T22:00:51.767Z,1.97
2018-08-10T22:03:27.130Z,1.87
2018-08-10T22:06:02.177Z,2.10
2018-08-10T22:08:37.566Z,2.60
2018-08-10T22:11:12.453Z,1.87
2018-08-10T22:13:53.386Z,2.00
2018-08-10T22:16:33.321Z,1.80
2018-08-10T22:19:15.721Z,1.80
2018-08-10T22:21:50.605Z,2.10
2018-08-10T22:24:25.680Z,2.03
2018-08-10T22:27:00.566Z,1.80
2018-08-10T22:29:35.428Z,1.97
2018-08-10T22:32:10.585Z,1.90
2018-08-10T22:34:45.277Z,1.80
2018-08-10T22:37:20.488Z,1.70
2018-08-10T22:39:55.426Z,2.00
2018-08-10T22:42:30.455Z,2.07
2018-08-10T22:45:06.063Z,1.83
2018-08-10T22:47:41.371Z,1.97
2018-08-10T22:50:16.074Z,2.23
2018-08-10T22:52:51.155Z,2.43
2018-08-10T22:55:26.262Z,2.20
2018-08-10T22:58:01.205Z,2.63
2018-08-10T23:00:36.363Z,1.97
2018-08-10T23:03:11.430Z,1.80
2018-08-10T23:05:46.606Z,1.83
2018-08-10T23:08:21.574Z,2.20
2018-08-10T23:10:56.799Z,2.00
2018-08-10T23:13:32.537Z,2.20
2018-08-10T23:16:13.832Z,2.47
2018-08-10T23:18:48.573Z,2.10
2018-08-10T23:21:24.024Z,1.80
2018-08-10T23:23:59.867Z,1.90
2018-08-10T23:26:34.625Z,1.80
2018-08-10T23:29:09.558Z,2.00
2018-08-10T23:31:44.276Z,1.70
2018-08-10T23:34:19.112Z,1.60
2018-08-10T23:36:54.100Z,2.00
2018-08-10T23:39:29.251Z,1.90
2018-08-10T23:42:04.424Z,2.07
2018-08-10T23:44:39.737Z,2.20
2018-08-10T23:47:14.713Z,2.40
2018-08-10T23:49:49.389Z,2.10
2018-08-10T23:52:24.656Z,2.20
2018-08-10T23:54:59.682Z,1.63
2018-08-10T23:57:34.716Z,1.80
